IGO454 VERP-VANP
Flight info
| Callsign | IGO454 |
|---|---|
| Flight time | 0h 29m |
| Altitude | 22000 |
| Route | SADEV N895 RUXAL V39 OMLEG |
| Aircraft | A320/M-SDE3FGHIRWY/LB1 |
Departure
| Time | 2026-05-06 12:04 |
|---|---|
| Airport | Swami Vivekananda Airport (VERP) |
Arrival
| Time | 2026-05-06 12:34 |
|---|---|
| Airport | Dr. Babasaheb Ambedkar International Airport (VANP) |
| Time | Latitude | Longitude | Altitude | Speed | Heading |
|---|---|---|---|---|---|
| 2026-05-06 11:58 | 21.18533 | 81.74140 | 1038 ft | 0 kts | 269° |
| 2026-05-06 11:59 | 21.18533 | 81.74138 | 1038 ft | 1 kts | 269° |
| 2026-05-06 11:59 | 21.18531 | 81.74131 | 1038 ft | 1 kts | 251° |
| 2026-05-06 12:00 | 21.18524 | 81.74127 | 1038 ft | 2 kts | 203° |
| 2026-05-06 12:00 | 21.18488 | 81.74112 | 1038 ft | 10 kts | 200° |
| 2026-05-06 12:00 | 21.18413 | 81.74108 | 1038 ft | 12 kts | 166° |
| 2026-05-06 12:00 | 21.18335 | 81.74150 | 1037 ft | 14 kts | 149° |
| 2026-05-06 12:01 | 21.18247 | 81.74200 | 1035 ft | 16 kts | 181° |
| 2026-05-06 12:01 | 21.18177 | 81.74115 | 1035 ft | 16 kts | 241° |
| 2026-05-06 12:01 | 21.18114 | 81.74007 | 1035 ft | 18 kts | 237° |
| 2026-05-06 12:01 | 21.18041 | 81.73875 | 1034 ft | 23 kts | 238° |
| 2026-05-06 12:02 | 21.17958 | 81.73723 | 1035 ft | 24 kts | 241° |
| 2026-05-06 12:02 | 21.17865 | 81.73560 | 1033 ft | 27 kts | 238° |
| 2026-05-06 12:02 | 21.17763 | 81.73383 | 1030 ft | 29 kts | 239° |
| 2026-05-06 12:02 | 21.17668 | 81.73216 | 1027 ft | 25 kts | 239° |
| 2026-05-06 12:03 | 21.17645 | 81.73117 | 1026 ft | 8 kts | 275° |
| 2026-05-06 12:03 | 21.17627 | 81.73116 | 1023 ft | 3 kts | 125° |
| 2026-05-06 12:03 | 21.17642 | 81.73170 | 1027 ft | 21 kts | 55° |
| 2026-05-06 12:03 | 21.17841 | 81.73520 | 1032 ft | 87 kts | 59° |
| 2026-05-06 12:04 | 21.18247 | 81.74241 | 1036 ft | 137 kts | 59° |
| 2026-05-06 12:04 | 21.18825 | 81.75249 | 1295 ft | 170 kts | 58° |
| 2026-05-06 12:04 | 21.19419 | 81.76358 | 2127 ft | 175 kts | 60° |
| 2026-05-06 12:04 | 21.20035 | 81.77523 | 2907 ft | 186 kts | 68° |
| 2026-05-06 12:05 | 21.20057 | 81.78948 | 3432 ft | 200 kts | 114° |
| 2026-05-06 12:05 | 21.19108 | 81.80048 | 3665 ft | 213 kts | 158° |
| 2026-05-06 12:05 | 21.17607 | 81.80156 | 3840 ft | 230 kts | 201° |
| 2026-05-06 12:05 | 21.16225 | 81.79190 | 4116 ft | 249 kts | 225° |
| 2026-05-06 12:06 | 21.15003 | 81.77740 | 4545 ft | 266 kts | 232° |
| 2026-05-06 12:06 | 21.13838 | 81.76170 | 5287 ft | 271 kts | 233° |
| 2026-05-06 12:06 | 21.12929 | 81.74406 | 6070 ft | 273 kts | 254° |
| 2026-05-06 12:06 | 21.12563 | 81.72405 | 6809 ft | 275 kts | 265° |
| 2026-05-06 12:07 | 21.12383 | 81.70361 | 7609 ft | 277 kts | 266° |
| 2026-05-06 12:07 | 21.12211 | 81.68302 | 8390 ft | 279 kts | 266° |
| 2026-05-06 12:07 | 21.12041 | 81.66224 | 9188 ft | 281 kts | 266° |
| 2026-05-06 12:07 | 21.11870 | 81.64131 | 9937 ft | 284 kts | 266° |
| 2026-05-06 12:08 | 21.11693 | 81.61955 | 10212 ft | 305 kts | 266° |
| 2026-05-06 12:08 | 21.11500 | 81.59613 | 10392 ft | 326 kts | 266° |
| 2026-05-06 12:08 | 21.11295 | 81.57158 | 10845 ft | 335 kts | 266° |
| 2026-05-06 12:08 | 21.11085 | 81.54652 | 11453 ft | 339 kts | 266° |
| 2026-05-06 12:09 | 21.10870 | 81.52124 | 12071 ft | 343 kts | 266° |
| 2026-05-06 12:09 | 21.10651 | 81.49576 | 12688 ft | 346 kts | 265° |
| 2026-05-06 12:09 | 21.10430 | 81.46999 | 13294 ft | 349 kts | 265° |
| 2026-05-06 12:09 | 21.10206 | 81.44395 | 13867 ft | 352 kts | 265° |
| 2026-05-06 12:10 | 21.09983 | 81.41772 | 14426 ft | 355 kts | 265° |
| 2026-05-06 12:10 | 21.09759 | 81.39136 | 14990 ft | 357 kts | 265° |
| 2026-05-06 12:10 | 21.09532 | 81.36481 | 15523 ft | 359 kts | 265° |
| 2026-05-06 12:10 | 21.09306 | 81.33817 | 15727 ft | 360 kts | 265° |
| 2026-05-06 12:11 | 21.09077 | 81.31110 | 15788 ft | 373 kts | 265° |
| 2026-05-06 12:11 | 21.08836 | 81.28278 | 15785 ft | 391 kts | 265° |
| 2026-05-06 12:11 | 21.08583 | 81.25320 | 15782 ft | 407 kts | 265° |
| 2026-05-06 12:11 | 21.08316 | 81.22216 | 15788 ft | 419 kts | 265° |
| 2026-05-06 12:12 | 21.08048 | 81.19130 | 15781 ft | 423 kts | 265° |
| 2026-05-06 12:12 | 21.07775 | 81.15993 | 15782 ft | 423 kts | 265° |
| 2026-05-06 12:12 | 21.07499 | 81.12816 | 15784 ft | 424 kts | 265° |
| 2026-05-06 12:12 | 21.07227 | 81.09672 | 15782 ft | 424 kts | 265° |
| 2026-05-06 12:13 | 21.06957 | 81.06535 | 15787 ft | 424 kts | 265° |
| 2026-05-06 12:13 | 21.06685 | 81.03395 | 15787 ft | 424 kts | 265° |
| 2026-05-06 12:13 | 21.06412 | 81.00248 | 15786 ft | 424 kts | 265° |
| 2026-05-06 12:13 | 21.06138 | 80.97110 | 15791 ft | 424 kts | 265° |
| 2026-05-06 12:14 | 21.05860 | 80.93970 | 15784 ft | 424 kts | 265° |
| 2026-05-06 12:14 | 21.05582 | 80.90829 | 15780 ft | 424 kts | 265° |
| 2026-05-06 12:14 | 21.05304 | 80.87689 | 15785 ft | 424 kts | 265° |
| 2026-05-06 12:14 | 21.05027 | 80.84551 | 15785 ft | 424 kts | 265° |
| 2026-05-06 12:15 | 21.04749 | 80.81411 | 15788 ft | 423 kts | 265° |
| 2026-05-06 12:15 | 21.04470 | 80.78282 | 15781 ft | 424 kts | 265° |
| 2026-05-06 12:15 | 21.04189 | 80.75134 | 15786 ft | 424 kts | 265° |
| 2026-05-06 12:15 | 21.03913 | 80.72000 | 15781 ft | 423 kts | 265° |
| 2026-05-06 12:16 | 21.03633 | 80.68826 | 15787 ft | 424 kts | 265° |
| 2026-05-06 12:16 | 21.03354 | 80.65682 | 15785 ft | 424 kts | 265° |
| 2026-05-06 12:16 | 21.03075 | 80.62540 | 15783 ft | 424 kts | 265° |
| 2026-05-06 12:16 | 21.02793 | 80.59397 | 15787 ft | 424 kts | 265° |
| 2026-05-06 12:17 | 21.02508 | 80.56258 | 15785 ft | 424 kts | 265° |
| 2026-05-06 12:17 | 21.02221 | 80.53118 | 15787 ft | 424 kts | 265° |
| 2026-05-06 12:17 | 21.01935 | 80.49966 | 15783 ft | 424 kts | 265° |
| 2026-05-06 12:17 | 21.01650 | 80.46821 | 15782 ft | 424 kts | 265° |
| 2026-05-06 12:18 | 21.01363 | 80.43634 | 15780 ft | 425 kts | 265° |
| 2026-05-06 12:18 | 21.01079 | 80.40490 | 15789 ft | 425 kts | 265° |
| 2026-05-06 12:18 | 21.00795 | 80.37347 | 15785 ft | 425 kts | 265° |
| 2026-05-06 12:18 | 21.00508 | 80.34194 | 15782 ft | 425 kts | 265° |
| 2026-05-06 12:19 | 21.00217 | 80.31048 | 15787 ft | 425 kts | 265° |
| 2026-05-06 12:19 | 20.99926 | 80.27902 | 15786 ft | 425 kts | 265° |
| 2026-05-06 12:19 | 20.99636 | 80.24757 | 15783 ft | 425 kts | 265° |
| 2026-05-06 12:19 | 20.99344 | 80.21609 | 15778 ft | 425 kts | 265° |
| 2026-05-06 12:20 | 20.99055 | 80.18461 | 15785 ft | 425 kts | 265° |
| 2026-05-06 12:20 | 20.98764 | 80.15304 | 15783 ft | 425 kts | 265° |
| 2026-05-06 12:20 | 20.98475 | 80.12160 | 15788 ft | 425 kts | 265° |
| 2026-05-06 12:20 | 20.98188 | 80.09028 | 15377 ft | 419 kts | 265° |
| 2026-05-06 12:21 | 20.97901 | 80.05937 | 14576 ft | 416 kts | 265° |
| 2026-05-06 12:21 | 20.97614 | 80.02871 | 13838 ft | 412 kts | 265° |
| 2026-05-06 12:21 | 20.97329 | 79.99833 | 13080 ft | 409 kts | 265° |
| 2026-05-06 12:21 | 20.97045 | 79.96819 | 12334 ft | 405 kts | 265° |
| 2026-05-06 12:22 | 20.96764 | 79.93834 | 11600 ft | 402 kts | 265° |
| 2026-05-06 12:22 | 20.96486 | 79.90876 | 10883 ft | 398 kts | 265° |
| 2026-05-06 12:22 | 20.96238 | 79.87943 | 10175 ft | 394 kts | 269° |
| 2026-05-06 12:22 | 20.96293 | 79.85979 | 9719 ft | 390 kts | 274° |
| 2026-05-06 12:23 | 20.96439 | 79.83092 | 8952 ft | 387 kts | 274° |
| 2026-05-06 12:23 | 20.96583 | 79.80232 | 8175 ft | 383 kts | 274° |
| 2026-05-06 12:23 | 20.96727 | 79.77398 | 7411 ft | 381 kts | 274° |
| 2026-05-06 12:23 | 20.96873 | 79.74576 | 6704 ft | 379 kts | 274° |
| 2026-05-06 12:24 | 20.97020 | 79.71769 | 6078 ft | 378 kts | 274° |
| 2026-05-06 12:24 | 20.97164 | 79.68958 | 5594 ft | 376 kts | 274° |
| 2026-05-06 12:24 | 20.97300 | 79.66181 | 4898 ft | 374 kts | 274° |
| 2026-05-06 12:24 | 20.97437 | 79.63391 | 4623 ft | 375 kts | 274° |
| 2026-05-06 12:25 | 20.97579 | 79.60554 | 4499 ft | 376 kts | 274° |
| 2026-05-06 12:25 | 20.97717 | 79.57762 | 4526 ft | 377 kts | 274° |
| 2026-05-06 12:25 | 20.97859 | 79.54917 | 4529 ft | 378 kts | 274° |
| 2026-05-06 12:25 | 20.97999 | 79.52113 | 4527 ft | 377 kts | 274° |
| 2026-05-06 12:26 | 20.98139 | 79.49308 | 4524 ft | 377 kts | 274° |
| 2026-05-06 12:26 | 20.98277 | 79.46513 | 4527 ft | 377 kts | 274° |
| 2026-05-06 12:26 | 20.98410 | 79.43785 | 4524 ft | 356 kts | 274° |
| 2026-05-06 12:26 | 20.98533 | 79.41216 | 4482 ft | 337 kts | 274° |
| 2026-05-06 12:27 | 20.98651 | 79.38781 | 4367 ft | 322 kts | 274° |
| 2026-05-06 12:27 | 20.98765 | 79.36420 | 4239 ft | 310 kts | 274° |
| 2026-05-06 12:27 | 20.98874 | 79.34157 | 4101 ft | 299 kts | 274° |
| 2026-05-06 12:27 | 20.98977 | 79.32017 | 3973 ft | 277 kts | 274° |
| 2026-05-06 12:28 | 20.99074 | 79.30001 | 3666 ft | 268 kts | 274° |
| 2026-05-06 12:28 | 20.99172 | 79.27999 | 3312 ft | 271 kts | 275° |
| 2026-05-06 12:28 | 20.99283 | 79.25999 | 3114 ft | 266 kts | 275° |
| 2026-05-06 12:28 | 20.99390 | 79.24069 | 3107 ft | 253 kts | 275° |
| 2026-05-06 12:29 | 20.99482 | 79.22237 | 3104 ft | 239 kts | 275° |
| 2026-05-06 12:29 | 20.99567 | 79.20510 | 3112 ft | 225 kts | 275° |
| 2026-05-06 12:29 | 20.99649 | 79.18885 | 3111 ft | 213 kts | 275° |
| 2026-05-06 12:29 | 20.99728 | 79.17323 | 3104 ft | 208 kts | 275° |
| 2026-05-06 12:30 | 20.99807 | 79.15795 | 3125 ft | 198 kts | 275° |
| 2026-05-06 12:30 | 20.99869 | 79.14389 | 3110 ft | 181 kts | 276° |
| 2026-05-06 12:30 | 20.99945 | 79.13092 | 3042 ft | 169 kts | 284° |
| 2026-05-06 12:30 | 21.00360 | 79.11963 | 2900 ft | 161 kts | 307° |
| 2026-05-06 12:31 | 21.01119 | 79.11119 | 2741 ft | 155 kts | 326° |
| 2026-05-06 12:31 | 21.01970 | 79.10450 | 2570 ft | 150 kts | 326° |
| 2026-05-06 12:31 | 21.02811 | 79.09787 | 2390 ft | 150 kts | 326° |
| 2026-05-06 12:31 | 21.03653 | 79.09122 | 2198 ft | 151 kts | 326° |
| 2026-05-06 12:32 | 21.04509 | 79.08447 | 2000 ft | 152 kts | 327° |
| 2026-05-06 12:32 | 21.05352 | 79.07781 | 1819 ft | 153 kts | 327° |
| 2026-05-06 12:32 | 21.06211 | 79.07103 | 1636 ft | 153 kts | 327° |
| 2026-05-06 12:32 | 21.07076 | 79.06416 | 1428 ft | 152 kts | 325° |
| 2026-05-06 12:33 | 21.07922 | 79.05745 | 1198 ft | 153 kts | 327° |
| 2026-05-06 12:33 | 21.08769 | 79.05074 | 1039 ft | 150 kts | 326° |
| 2026-05-06 12:33 | 21.09511 | 79.04492 | 1028 ft | 109 kts | 323° |
| 2026-05-06 12:33 | 21.10004 | 79.04108 | 1035 ft | 75 kts | 324° |
| 2026-05-06 12:34 | 21.10393 | 79.03799 | 1035 ft | 56 kts | 324° |
| 2026-05-06 12:34 | 21.10627 | 79.03618 | 1040 ft | 40 kts | 325° |
| 2026-05-06 12:34 | 21.10790 | 79.03486 | 1045 ft | 23 kts | 322° |
| 2026-05-06 12:34 | 21.10851 | 79.03403 | 1044 ft | 5 kts | 5° |
| 2026-05-06 12:35 | 21.10819 | 79.03459 | 1045 ft | 23 kts | 153° |
| 2026-05-06 12:35 | 21.10600 | 79.03637 | 1039 ft | 56 kts | 142° |
| 2026-05-06 12:35 | 21.10207 | 79.03950 | 1035 ft | 84 kts | 142° |
| 2026-05-06 12:35 | 21.09675 | 79.04376 | 1033 ft | 109 kts | 141° |
| 2026-05-06 12:36 | 21.09282 | 79.05037 | 1021 ft | 77 kts | 110° |
| 2026-05-06 12:36 | 21.09167 | 79.05279 | 1020 ft | 23 kts | 110° |
| 2026-05-06 12:36 | 21.09114 | 79.05368 | 1021 ft | 7 kts | 123° |
| 2026-05-06 12:36 | 21.09110 | 79.05376 | 1021 ft | 0 kts | 123° |